Time;durP1;ratioP1;P1;durP2;ratioP2;P2;SDS_P1;SDS_P2;PMS_P1;PMS_P2;Temp;Humidity;BMP_temperature;BMP_pressure;BME280_temperature;BME280_humidity;BME280_pressure;Samples;Min_cycle;Max_cycle;Signal;HPM_P1;HPM_P2
2021/10/10 00:00:34;;;;;;;363.67;59.00;;;;;;;9.17;93.25;102080.31;5068028;28;20029;-71
2021/10/10 00:02:59;;;;;;;792.92;103.18;;;;;;;9.17;93.21;102069.94;5085841;28;20024;-70
2021/10/10 00:05:25;;;;;;;815.85;104.10;;;;;;;9.09;93.39;102072.34;5085823;28;20020;-71
2021/10/10 00:07:51;;;;;;;510.70;81.55;;;;;;;9.02;93.57;102060.97;5085699;28;20496;-70
2021/10/10 00:10:16;;;;;;;287.52;66.30;;;;;;;9.10;93.31;102068.94;5085860;28;20119;-70
2021/10/10 00:12:46;;;;;;;282.10;61.72;;;;;;;9.05;93.20;102068.81;5085710;28;20029;-70
2021/10/10 00:15:13;;;;;;;320.70;71.18;;;;;;;9.06;93.21;102067.09;5085520;28;20028;-70
2021/10/10 00:17:39;;;;;;;219.98;57.03;;;;;;;8.99;92.72;102060.03;5085683;28;20032;-71
2021/10/10 00:20:06;;;;;;;212.63;61.05;;;;;;;8.89;93.02;102058.91;5085314;28;20031;-71
2021/10/10 00:22:32;;;;;;;190.70;62.85;;;;;;;8.85;93.46;102057.09;5084989;28;20056;-70
2021/10/10 00:24:58;;;;;;;215.30;65.07;;;;;;;8.81;93.50;102053.53;5085115;28;20441;-71
2021/10/10 00:27:23;;;;;;;210.27;66.40;;;;;;;8.71;93.30;102033.41;5085262;28;20045;-71
2021/10/10 00:29:50;;;;;;;208.35;66.55;;;;;;;8.74;93.39;102046.47;5084797;28;20028;-71
2021/10/10 00:32:16;;;;;;;184.45;64.68;;;;;;;8.70;93.35;102048.09;5067028;28;20194;-71
2021/10/10 00:34:42;;;;;;;194.35;65.07;;;;;;;8.67;93.45;102033.31;5085151;28;20029;-72
2021/10/10 00:37:07;;;;;;;181.05;63.70;;;;;;;8.66;93.54;102041.06;5085158;28;20265;-73
2021/10/10 00:39:33;;;;;;;191.95;66.55;;;;;;;8.65;93.66;102042.78;5085149;28;20024;-73
2021/10/10 00:41:58;;;;;;;196.27;65.90;;;;;;;8.63;93.57;102035.78;5085009;28;20020;-73
2021/10/10 00:44:25;;;;;;;191.90;64.32;;;;;;;8.64;93.41;102035.84;5084854;28;20029;-73
2021/10/10 00:46:51;;;;;;;203.57;66.22;;;;;;;8.66;93.24;102039.34;5084945;28;20036;-73
2021/10/10 00:49:16;;;;;;;150.32;49.88;;;;;;;8.59;93.41;102027.09;5085132;28;20032;-73
2021/10/10 00:51:44;;;;;;;175.75;63.65;;;;;;;8.60;93.60;102033.13;5065913;28;20033;-73
2021/10/10 00:54:13;;;;;;;169.82;65.15;;;;;;;8.60;93.45;102025.38;5084700;28;20461;-73
2021/10/10 00:56:39;;;;;;;165.00;59.05;;;;;;;8.57;93.56;102023.59;5084650;28;20044;-73
2021/10/10 00:59:05;;;;;;;169.77;61.38;;;;;;;8.61;93.41;102024.53;5083954;28;20024;-73
2021/10/10 01:01:31;;;;;;;174.15;60.72;;;;;;;8.63;93.32;102025.44;5084444;28;20028;-76
2021/10/10 01:03:57;;;;;;;153.02;59.65;;;;;;;8.60;93.04;102027.94;5084877;28;20031;-72
2021/10/10 01:06:23;;;;;;;151.65;60.50;;;;;;;8.56;93.60;102019.25;5084796;28;20025;-71
2021/10/10 01:08:49;;;;;;;137.27;59.35;;;;;;;8.57;93.33;102013.22;5067062;28;20027;-72
2021/10/10 01:11:15;;;;;;;139.15;55.55;;;;;;;8.54;93.35;102010.53;5066850;28;20020;-72
2021/10/10 01:13:42;;;;;;;147.55;59.55;;;;;;;8.53;93.55;102014.81;5084573;28;20114;-72
2021/10/10 01:16:07;;;;;;;133.35;55.90;;;;;;;8.49;93.42;102006.94;5084919;28;20028;-72
2021/10/10 01:18:33;;;;;;;152.48;59.60;;;;;;;8.48;93.21;102003.47;5084636;28;20031;-70
2021/10/10 01:20:58;;;;;;;140.63;54.08;;;;;;;8.49;93.47;102005.22;5084101;28;20393;-71
2021/10/10 01:23:24;;;;;;;127.47;54.28;;;;;;;8.49;93.21;101994.88;5084210;28;20024;-71
2021/10/10 01:25:50;;;;;;;134.38;55.78;;;;;;;8.47;93.08;101995.66;5084098;28;20020;-72
2021/10/10 01:28:16;;;;;;;132.20;53.35;;;;;;;8.45;93.44;101994.75;5084064;28;20032;-72
2021/10/10 01:30:41;;;;;;;105.72;51.10;;;;;;;8.46;93.48;101993.91;5065764;28;20027;-72
2021/10/10 01:33:12;;;;;;;106.35;51.17;;;;;;;8.48;93.64;101989.66;5065992;28;20169;-73
2021/10/10 01:35:39;;;;;;;107.47;48.50;;;;;;;8.47;93.66;101987.88;5083859;28;20084;-75
2021/10/10 01:38:05;;;;;;;116.70;47.70;;;;;;;8.45;93.50;101984.41;5065796;28;20024;-73
2021/10/10 01:40:31;;;;;;;100.97;48.78;;;;;;;8.46;93.56;101983.56;5083872;28;20016;-73
2021/10/10 01:42:56;;;;;;;106.05;48.92;;;;;;;8.49;93.66;101983.63;5065391;28;20458;-74
2021/10/10 01:45:23;;;;;;;115.50;53.75;;;;;;;8.43;93.34;101976.59;5083363;28;20515;-73
2021/10/10 01:47:49;;;;;;;93.22;44.95;;;;;;;8.48;93.36;101974.97;5065466;28;20029;-72
2021/10/10 01:50:15;;;;;;;100.57;46.13;;;;;;;8.52;93.53;101978.53;5083715;28;20438;-72
2021/10/10 01:52:43;;;;;;;97.40;46.70;;;;;;;8.51;93.29;101979.38;5065246;28;20027;-72
2021/10/10 01:55:10;;;;;;;97.70;47.38;;;;;;;8.49;93.10;101975.88;5083627;28;20021;-72
2021/10/10 01:57:35;;;;;;;91.43;44.95;;;;;;;8.47;93.18;101972.34;5065417;28;20092;-71
2021/10/10 02:00:01;;;;;;;91.47;45.90;;;;;;;8.41;92.85;101966.22;5083430;28;20020;-71
2021/10/10 02:02:26;;;;;;;94.50;44.42;;;;;;;8.43;92.88;101974.03;5083360;28;20024;-70
2021/10/10 02:04:51;;;;;;;92.72;44.30;;;;;;;8.34;92.97;101953.06;5064739;28;20025;-72
2021/10/10 02:07:17;;;;;;;86.45;42.88;;;;;;;8.39;92.99;101960.13;5083347;28;20031;-72
2021/10/10 02:09:43;;;;;;;85.97;43.47;;;;;;;8.39;92.96;101954.06;5083325;28;20518;-73
2021/10/10 02:12:08;;;;;;;82.70;41.67;;;;;;;8.36;93.07;101946.22;5083354;28;20024;-74
2021/10/10 02:14:36;;;;;;;75.63;40.65;;;;;;;8.42;93.31;101951.53;5083117;28;20031;-73
2021/10/10 02:17:02;;;;;;;73.43;37.60;;;;;;;8.45;93.25;101954.19;5083394;28;20033;-71
2021/10/10 02:19:28;;;;;;;69.43;36.85;;;;;;;8.51;93.48;101953.50;5083087;28;20020;-72
2021/10/10 02:21:53;;;;;;;75.50;39.45;;;;;;;8.55;93.28;101937.22;5083106;28;20522;-72
2021/10/10 02:24:18;;;;;;;70.32;36.05;;;;;;;8.59;93.28;101939.06;5082880;28;20475;-72
2021/10/10 02:26:44;;;;;;;61.88;34.33;;;;;;;8.62;93.31;101935.69;5082894;28;20021;-71
2021/10/10 02:29:09;;;;;;;69.22;37.78;;;;;;;8.58;93.26;101920.91;5082971;28;20033;-71
2021/10/10 02:31:35;;;;;;;69.57;35.45;;;;;;;8.60;93.17;101921.81;5083482;28;20088;-71
2021/10/10 02:34:00;;;;;;;69.25;36.20;;;;;;;8.64;93.20;101929.69;5083309;28;20501;-71
2021/10/10 02:36:25;;;;;;;67.15;35.42;;;;;;;8.63;92.97;101929.66;5083243;28;20021;-71
2021/10/10 02:38:51;;;;;;;68.22;34.50;;;;;;;8.63;92.81;101919.28;5065058;28;20048;-72
2021/10/10 02:41:16;;;;;;;63.80;34.25;;;;;;;8.61;92.91;101919.25;5082984;28;20021;-69
2021/10/10 02:43:41;;;;;;;63.90;34.17;;;;;;;8.59;92.84;101920.97;5082682;28;20569;-70
2021/10/10 02:46:07;;;;;;;58.80;32.90;;;;;;;8.59;93.17;101915.78;5083025;28;20406;-70
2021/10/10 02:48:32;;;;;;;64.50;34.67;;;;;;;8.54;92.81;101907.91;5082793;28;20027;-69
2021/10/10 02:50:58;;;;;;;63.40;34.03;;;;;;;8.61;92.81;101908.91;5082812;28;20044;-70
2021/10/10 02:53:23;;;;;;;61.17;33.20;;;;;;;8.64;92.89;101906.38;5083143;28;20047;-69
2021/10/10 02:55:48;;;;;;;72.63;36.10;;;;;;;8.58;92.89;101895.03;5083025;28;20020;-70
2021/10/10 02:58:14;;;;;;;62.00;33.03;;;;;;;8.61;92.70;101905.47;5082977;28;20472;-70
2021/10/10 03:00:40;;;;;;;63.63;33.78;;;;;;;8.54;92.62;101900.13;5082853;28;20047;-70
2021/10/10 03:03:05;;;;;;;64.75;33.40;;;;;;;8.55;92.51;101893.22;5082983;28;20031;-71
2021/10/10 03:05:31;;;;;;;63.17;33.80;;;;;;;8.55;92.58;101895.81;5082814;28;20028;-71
2021/10/10 03:07:56;;;;;;;63.20;32.47;;;;;;;8.49;92.62;101886.16;5082933;28;20020;-71
2021/10/10 03:10:21;;;;;;;58.70;30.05;;;;;;;8.51;93.02;101891.38;5082876;28;20028;-72
2021/10/10 03:12:47;;;;;;;57.83;30.33;;;;;;;8.51;92.90;101883.63;5082950;28;20020;-71
2021/10/10 03:15:12;;;;;;;56.15;27.48;;;;;;;8.50;92.97;101879.28;5082977;28;20039;-71
2021/10/10 03:17:37;;;;;;;46.97;25.40;;;;;;;8.55;93.06;101877.69;5086646;28;20068;-71
2021/10/10 03:20:04;;;;;;;44.17;24.83;;;;;;;8.57;93.27;101876.03;5068453;28;20024;-71
2021/10/10 03:22:29;;;;;;;39.72;23.95;;;;;;;8.63;93.19;101875.28;5085998;28;20040;-72
2021/10/10 03:24:55;;;;;;;44.05;23.98;;;;;;;8.66;93.40;101867.59;5086556;28;20048;-72
2021/10/10 03:27:25;;;;;;;44.90;25.30;;;;;;;8.66;93.41;101865.88;5086251;28;20420;-71
2021/10/10 03:29:50;;;;;;;42.20;24.33;;;;;;;8.70;92.92;101871.13;5086212;28;20365;-70
2021/10/10 03:32:16;;;;;;;40.10;24.00;;;;;;;8.68;93.32;101871.97;5068409;28;20027;-70
2021/10/10 03:34:41;;;;;;;45.40;24.63;;;;;;;8.69;92.88;101862.47;5086031;28;20024;-70
2021/10/10 03:37:06;;;;;;;37.08;23.23;;;;;;;8.68;92.58;101866.81;5101668;28;20058;-70
2021/10/10 03:39:32;;;;;;;38.88;22.67;;;;;;;8.64;92.78;101857.19;5086224;28;20067;-70
2021/10/10 03:41:57;;;;;;;31.17;21.25;;;;;;;8.63;92.49;101855.47;5086026;28;20487;-70
2021/10/10 03:44:22;;;;;;;35.63;21.42;;;;;;;8.60;92.70;101845.03;5085926;28;20020;-70
2021/10/10 03:46:47;;;;;;;31.38;21.63;;;;;;;8.62;92.59;101842.47;5085926;28;20115;-71
2021/10/10 03:49:13;;;;;;;39.45;19.05;;;;;;;8.58;92.66;101831.16;5067893;28;20168;-71
2021/10/10 03:51:38;;;;;;;35.92;19.52;;;;;;;8.61;92.52;101831.22;5085786;28;20052;-71
2021/10/10 03:56:53;;;;;;;34.00;19.63;;;;;;;8.67;92.57;101833.09;5003624;28;20038;-72
2021/10/10 03:59:21;;;;;;;34.85;19.67;;;;;;;8.70;93.01;101824.53;5003719;28;20038;-72
2021/10/10 04:01:46;;;;;;;34.47;19.52;;;;;;;8.76;92.84;101835.91;5003444;28;20034;-70
2021/10/10 04:04:12;;;;;;;31.27;20.25;;;;;;;8.74;92.62;101826.34;5003391;28;20117;-70
2021/10/10 04:06:37;;;;;;;35.30;20.60;;;;;;;8.73;92.71;101822.88;5003592;28;20026;-71
2021/10/10 04:09:02;;;;;;;37.00;19.58;;;;;;;8.74;92.76;101823.78;5003451;28;20214;-70
2021/10/10 04:11:28;;;;;;;37.40;18.60;;;;;;;8.74;92.90;101814.25;5003284;28;20026;-70
2021/10/10 04:13:53;;;;;;;32.85;18.80;;;;;;;8.81;92.56;101807.50;5003449;28;20035;-70
2021/10/10 04:16:18;;;;;;;37.00;19.20;;;;;;;8.82;92.73;101806.66;5003389;28;20050;-70
2021/10/10 04:18:44;;;;;;;34.88;17.50;;;;;;;8.86;92.79;101805.91;5003298;28;20720;-71
2021/10/10 04:21:09;;;;;;;34.60;18.60;;;;;;;8.89;93.05;101795.59;5003057;28;20046;-70
2021/10/10 04:23:34;;;;;;;34.80;18.00;;;;;;;8.94;93.47;101795.69;5003275;28;20033;-70
2021/10/10 04:26:00;;;;;;;32.95;17.10;;;;;;;8.97;93.30;101780.22;5002977;28;20085;-71
2021/10/10 04:28:26;;;;;;;36.05;17.23;;;;;;;9.02;93.59;101777.72;5003254;28;20038;-70
2021/10/10 04:30:51;;;;;;;32.38;17.30;;;;;;;9.15;93.45;101787.47;5002746;28;20034;-69
2021/10/10 04:33:17;;;;;;;34.58;17.20;;;;;;;9.23;93.46;101790.25;5024005;28;20063;-70
2021/10/10 04:35:43;;;;;;;33.80;18.55;;;;;;;9.30;93.48;101773.06;5066948;28;20112;-71
2021/10/10 04:38:09;;;;;;;27.63;14.63;;;;;;;9.29;93.75;101773.94;5085099;28;20051;-71
2021/10/10 04:40:35;;;;;;;29.48;16.98;;;;;;;9.36;93.25;101777.50;5084873;28;20020;-71
2021/10/10 04:43:00;;;;;;;36.90;15.32;;;;;;;9.41;93.16;101760.31;5084622;28;20025;-70
2021/10/10 04:45:25;;;;;;;29.42;16.30;;;;;;;9.40;92.86;101763.75;5084499;28;20020;-71
2021/10/10 04:47:51;;;;;;;31.08;14.60;;;;;;;9.40;92.46;101753.38;5084683;28;20028;-71
2021/10/10 04:50:16;;;;;;;27.55;14.48;;;;;;;9.46;92.29;101757.78;5084782;28;20078;-71
2021/10/10 04:52:41;;;;;;;30.73;14.52;;;;;;;9.40;91.65;101741.31;5100079;28;20486;-70
2021/10/10 04:55:07;;;;;;;24.05;12.80;;;;;;;9.45;91.54;101750.88;5084619;28;20092;-71
2021/10/10 04:57:32;;;;;;;23.10;13.07;;;;;;;9.46;91.56;101750.03;5084453;28;20036;-71
2021/10/10 04:59:58;;;;;;;25.92;13.95;;;;;;;9.49;91.05;101747.50;5084396;28;20419;-71
2021/10/10 05:02:23;;;;;;;24.10;13.30;;;;;;;9.51;90.91;101748.38;5084442;28;20032;-71
2021/10/10 05:04:50;;;;;;;28.27;14.68;;;;;;;9.52;90.62;101738.03;5084369;28;20050;-71
2021/10/10 05:07:16;;;;;;;21.30;13.32;;;;;;;9.50;90.80;101739.75;5084339;28;20492;-72
2021/10/10 05:09:42;;;;;;;23.95;13.80;;;;;;;9.55;90.40;101738.09;5084472;28;20048;-72
2021/10/10 05:12:08;;;;;;;21.35;13.35;;;;;;;9.54;90.44;101738.06;5084402;28;20063;-71
2021/10/10 05:14:33;;;;;;;19.30;12.75;;;;;;;9.56;90.44;101733.78;5066154;28;20070;-71
2021/10/10 05:16:59;;;;;;;24.15;12.88;;;;;;;9.58;90.46;101732.13;5084335;28;20483;-72
2021/10/10 05:19:25;;;;;;;18.63;13.15;;;;;;;9.57;90.17;101725.16;5084640;28;20020;-72
2021/10/10 05:21:50;;;;;;;24.30;11.63;;;;;;;9.60;90.09;101730.41;5083901;28;20041;-73
2021/10/10 05:24:16;;;;;;;19.13;12.65;;;;;;;9.67;90.07;101729.66;5084085;28;20133;-73
2021/10/10 05:26:41;;;;;;;21.35;12.68;;;;;;;9.69;90.17;101723.63;5084017;28;20025;-72
2021/10/10 05:29:07;;;;;;;23.02;12.13;;;;;;;9.73;90.48;101715.91;5084138;28;20033;-71
2021/10/10 05:31:32;;;;;;;24.27;13.27;;;;;;;9.75;90.52;101711.63;5083978;28;20428;-71
2021/10/10 05:33:58;;;;;;;21.25;12.50;;;;;;;9.83;90.37;101716.94;5083939;28;20052;-70
2021/10/10 05:36:23;;;;;;;22.77;11.77;;;;;;;9.85;89.89;101717.84;5083910;28;20021;-70
2021/10/10 05:38:49;;;;;;;18.38;10.77;;;;;;;9.83;89.80;101703.97;5065316;28;20025;-69
2021/10/10 05:41:14;;;;;;;19.25;11.70;;;;;;;9.92;89.44;101714.50;5065518;28;20349;-70
2021/10/10 05:43:40;;;;;;;21.52;12.02;;;;;;;9.99;89.73;101704.22;5065705;28;20025;-70
2021/10/10 05:46:05;;;;;;;23.83;11.60;;;;;;;10.09;89.83;101711.28;5083733;28;20542;-69
2021/10/10 05:48:30;;;;;;;19.00;10.68;;;;;;;10.16;89.51;101707.91;5083567;28;20024;-71
2021/10/10 05:50:56;;;;;;;18.98;11.15;;;;;;;10.26;89.23;101702.84;5083689;28;20032;-71
2021/10/10 05:53:21;;;;;;;19.75;12.00;;;;;;;10.36;89.21;101714.25;5083488;28;20032;-70
2021/10/10 05:55:46;;;;;;;17.10;11.13;;;;;;;10.40;89.04;101690.94;5083612;28;20068;-70
2021/10/10 05:58:18;;;;;;;15.13;10.27;;;;;;;10.52;88.62;101702.38;5083701;28;20118;-70
2021/10/10 06:00:43;;;;;;;22.40;10.60;;;;;;;10.58;88.26;101705.03;5065376;28;20107;-70
2021/10/10 06:03:08;;;;;;;20.30;11.57;;;;;;;10.66;88.37;101692.16;5083427;28;20028;-69
2021/10/10 06:05:35;;;;;;;16.17;9.80;;;;;;;10.75;87.80;101700.03;5083336;28;20055;-71
2021/10/10 06:08:00;;;;;;;19.75;10.40;;;;;;;10.83;87.31;101699.28;5065418;28;20427;-70
2021/10/10 06:10:27;;;;;;;18.27;9.77;;;;;;;10.86;87.01;101694.97;5083530;28;20028;-70
2021/10/10 06:12:52;;;;;;;26.60;10.00;;;;;;;10.96;86.64;101689.91;5083415;28;20029;-70
2021/10/10 06:15:18;;;;;;;24.73;9.68;;;;;;;11.02;86.08;101690.81;5082919;28;20028;-70
2021/10/10 06:17:43;;;;;;;17.27;9.00;;;;;;;11.09;85.93;101688.28;5065264;28;20105;-71
2021/10/10 06:20:09;;;;;;;16.10;8.95;;;;;;;11.18;84.49;101692.72;5083339;28;20020;-72
2021/10/10 06:22:35;;;;;;;13.48;9.15;;;;;;;11.25;84.74;101697.09;5083187;28;20056;-70
2021/10/10 06:25:01;;;;;;;15.90;8.20;;;;;;;11.32;84.75;101695.44;5065481;28;20025;-70
2021/10/10 06:27:34;;;;;;;17.60;9.43;;;;;;;11.37;84.22;101685.97;5083320;28;20095;-70
2021/10/10 06:29:59;;;;;;;19.10;9.90;;;;;;;11.45;84.91;101694.69;5083013;28;20027;-69
2021/10/10 06:32:24;;;;;;;14.73;8.23;;;;;;;11.46;83.76;101691.22;5064960;28;20112;-69
2021/10/10 06:34:50;;;;;;;17.92;8.02;;;;;;;11.55;83.67;101694.78;5083035;28;20021;-70
2021/10/10 06:37:15;;;;;;;18.23;8.48;;;;;;;11.52;82.73;101690.41;5083068;28;20076;-70
2021/10/10 06:39:41;;;;;;;19.58;8.15;;;;;;;11.52;82.08;101683.47;5083157;28;20114;-71
2021/10/10 06:42:07;;;;;;;14.02;8.43;;;;;;;11.52;81.38;101685.19;5082933;28;20035;-71
2021/10/10 06:44:34;;;;;;;13.18;8.00;;;;;;;11.58;81.75;101687.00;5082804;28;20024;-70
2021/10/10 06:47:00;;;;;;;12.93;7.25;;;;;;;11.59;81.58;101681.81;5082961;28;20464;-71
2021/10/10 06:49:25;;;;;;;13.25;8.02;;;;;;;11.62;81.55;101683.53;5084015;28;20043;-70
2021/10/10 06:51:51;;;;;;;15.75;8.02;;;;;;;11.69;81.85;101684.47;5086951;28;20084;-72
2021/10/10 06:54:16;;;;;;;15.65;7.93;;;;;;;11.67;82.07;101684.47;5087068;28;20020;-70
2021/10/10 06:56:42;;;;;;;19.48;8.07;;;;;;;11.63;81.29;101683.56;5086945;28;20016;-72
2021/10/10 06:59:07;;;;;;;13.13;7.93;;;;;;;11.63;80.88;101686.16;5086687;28;20052;-70
2021/10/10 07:01:33;;;;;;;10.82;7.28;;;;;;;11.62;80.33;101684.44;5086687;28;20337;-70
2021/10/10 07:03:58;;;;;;;12.05;7.05;;;;;;;11.59;79.76;101679.22;5086886;28;20076;-70
2021/10/10 07:06:24;;;;;;;11.85;7.00;;;;;;;11.58;79.88;101685.25;5086774;28;20055;-71
2021/10/10 07:08:50;;;;;;;12.45;7.53;;;;;;;11.60;80.42;101674.84;5086848;28;20108;-71
2021/10/10 07:11:15;;;;;;;14.15;6.93;;;;;;;11.60;80.19;101675.72;5086580;28;20020;-71
2021/10/10 07:13:40;;;;;;;13.68;8.23;;;;;;;11.57;80.41;101662.72;5086510;28;20020;-71
2021/10/10 07:16:06;;;;;;;15.27;7.57;;;;;;;11.68;80.98;101667.13;5086650;28;20273;-72
2021/10/10 07:18:42;;;;;;;12.52;7.63;;;;;;;11.68;81.06;101659.34;5086409;28;20035;-71
2021/10/10 07:26:22;;;;;;;19.17;8.35;;;;;;;11.77;81.11;101654.19;5086516;28;20032;-71
2021/10/10 07:28:48;;;;;;;12.02;7.28;;;;;;;11.77;81.56;101655.03;5099704;28;20034;-71
2021/10/10 07:31:14;;;;;;;11.43;7.00;;;;;;;11.84;81.19;101652.47;5106440;28;20024;-71
2021/10/10 07:33:40;;;;;;;15.45;7.03;;;;;;;11.86;80.88;101654.25;5106827;28;20158;-71
2021/10/10 07:36:06;;;;;;;15.48;7.95;;;;;;;11.85;79.90;101656.84;5088320;28;20012;-70
2021/10/10 07:38:32;;;;;;;12.98;8.77;;;;;;;11.89;80.30;101659.47;5106330;28;20032;-71
2021/10/10 07:40:59;;;;;;;14.77;8.50;;;;;;;11.92;80.52;101650.78;5107063;28;20103;-71
2021/10/10 07:43:24;;;;;;;15.73;8.23;;;;;;;12.00;80.37;101656.03;5088276;28;20059;-74
2021/10/10 07:45:51;;;;;;;15.70;7.63;;;;;;;12.00;80.75;101650.84;5106076;28;20020;-74
2021/10/10 07:48:16;;;;;;;20.77;7.82;;;;;;;12.07;80.34;101650.03;5106530;28;20035;-74
2021/10/10 07:50:43;;;;;;;13.02;6.65;;;;;;;12.14;80.59;101654.41;5106363;28;20023;-73
2021/10/10 07:53:09;;;;;;;13.68;7.75;;;;;;;12.20;78.99;101652.72;5106113;28;20027;-72
2021/10/10 07:55:34;;;;;;;13.15;7.03;;;;;;;12.22;79.17;101645.78;5105821;28;20020;-73
2021/10/10 07:58:00;;;;;;;23.90;8.77;;;;;;;12.29;77.56;101649.28;5087795;28;20027;-73
2021/10/10 08:00:29;;;;;;;14.20;7.38;;;;;;;12.34;77.22;101650.16;5105753;28;20127;-72
2021/10/10 08:02:59;;;;;;;13.15;7.63;;;;;;;12.46;77.92;101651.97;5105092;28;20506;-73
2021/10/10 08:05:27;;;;;;;13.30;7.70;;;;;;;12.50;77.39;101656.31;5105869;28;20118;-73
2021/10/10 08:07:54;;;;;;;12.25;6.70;;;;;;;12.59;76.33;101652.84;5105557;28;20016;-73
2021/10/10 08:10:20;;;;;;;13.57;7.50;;;;;;;12.72;75.81;101658.97;5105746;28;20027;-73
2021/10/10 08:12:46;;;;;;;14.32;6.93;;;;;;;13.07;76.57;101652.97;5105739;28;20042;-71
2021/10/10 08:15:15;;;;;;;17.83;7.70;;;;;;;13.23;75.41;101651.25;5105474;28;20384;-71
2021/10/10 08:17:40;;;;;;;11.15;5.85;;;;;;;13.34;72.92;101651.25;5105448;28;20016;-72
2021/10/10 08:20:08;;;;;;;13.75;6.35;;;;;;;13.40;71.95;101650.41;5105374;28;20020;-71
2021/10/10 08:22:35;;;;;;;12.07;6.50;;;;;;;13.45;71.63;101638.19;5086897;28;20043;-71
2021/10/10 08:25:06;;;;;;;10.98;5.72;;;;;;;13.66;70.78;101649.53;5121227;28;20129;-70
2021/10/10 08:27:32;;;;;;;11.87;6.93;;;;;;;13.85;71.21;101645.13;5105477;28;20087;-70
2021/10/10 08:29:57;;;;;;;13.10;5.70;;;;;;;14.08;70.07;101644.22;5104936;28;20265;-70
2021/10/10 08:32:23;;;;;;;12.93;6.18;;;;;;;14.14;68.77;101648.53;5105114;28;20019;-69
2021/10/10 08:34:48;;;;;;;17.38;7.60;;;;;;;14.08;68.60;101635.50;5105095;28;20047;-70
2021/10/10 08:37:13;;;;;;;10.02;6.20;;;;;;;14.28;69.43;101645.03;5105158;28;20024;-70
2021/10/10 08:39:39;;;;;;;15.75;6.65;;;;;;;14.38;68.62;101631.03;5086809;28;20020;-71
2021/10/10 08:42:06;;;;;;;12.95;6.07;;;;;;;14.47;68.39;101628.38;5105047;28;20032;-71
2021/10/10 08:44:39;;;;;;;15.65;6.72;;;;;;;14.51;68.35;101624.00;5104749;28;20389;-72
2021/10/10 08:47:09;;;;;;;11.70;6.10;;;;;;;14.65;67.45;101623.06;5086880;28;20024;-72
2021/10/10 08:49:42;;;;;;;15.25;6.18;;;;;;;14.80;68.64;101622.13;5086477;28;20028;-71
2021/10/10 08:52:10;;;;;;;9.25;5.15;;;;;;;15.07;65.33;101621.06;5104940;28;20035;-72
2021/10/10 08:54:35;;;;;;;8.48;5.35;;;;;;;15.28;67.20;101616.53;5120600;28;20100;-73
2021/10/10 08:57:02;;;;;;;13.55;6.40;;;;;;;15.51;66.80;101614.59;5086516;28;20020;-73
2021/10/10 08:59:29;;;;;;;13.25;5.65;;;;;;;15.59;64.24;101613.63;5104665;28;20047;-72
2021/10/10 09:01:56;;;;;;;11.68;5.82;;;;;;;15.50;64.99;101613.72;5104518;28;20026;-69
2021/10/10 09:04:22;;;;;;;10.52;5.63;;;;;;;15.51;66.88;101612.81;5104803;28;20076;-70
2021/10/10 09:06:47;;;;;;;12.27;6.43;;;;;;;15.43;66.63;101617.28;5104521;28;20090;-68
2021/10/10 09:09:29;;;;;;;11.25;6.10;;;;;;;15.39;66.58;101612.94;5104633;28;20027;-69
2021/10/10 09:12:03;;;;;;;;;;;;;;;15.35;67.34;101620.81;5086743;28;20016;-70
2021/10/10 09:14:40;;;;;;;14.25;7.88;;;;;;;15.31;65.17;101624.38;5103300;28;19915;-69
2021/10/10 09:17:12;;;;;;;9.50;5.82;;;;;;;15.25;65.66;101632.25;5104620;28;20024;-69
2021/10/10 09:19:37;;;;;;;16.05;6.70;;;;;;;15.20;65.27;101618.34;5104556;28;20048;-69
2021/10/10 09:22:11;;;;;;;14.45;6.22;;;;;;;15.14;65.91;101621.00;5104046;28;20043;-69
2021/10/10 09:24:36;;;;;;;14.38;6.13;;;;;;;15.07;65.61;101614.97;5104474;28;20073;-70
2021/10/10 09:27:09;;;;;;;12.77;6.43;;;;;;;15.02;65.62;101619.34;5104449;28;20051;-70
2021/10/10 09:29:40;;;;;;;12.15;7.13;;;;;;;14.90;64.47;101613.34;5104197;28;20035;-69
2021/10/10 09:32:11;;;;;;;10.38;5.60;;;;;;;14.70;64.30;101608.22;5086142;28;20395;-67
2021/10/10 09:34:38;;;;;;;12.88;6.22;;;;;;;14.53;64.49;101610.94;5103592;28;20075;-69
2021/10/10 09:37:05;;;;;;;11.52;6.00;;;;;;;14.50;65.32;101604.00;5104489;28;20452;-69
2021/10/10 09:39:37;;;;;;;12.77;6.47;;;;;;;14.35;65.08;101616.25;5104217;28;20035;-69
2021/10/10 09:42:03;;;;;;;13.77;7.05;;;;;;;14.27;65.37;101607.56;5103969;28;20024;-69
2021/10/10 09:44:39;;;;;;;11.52;6.80;;;;;;;14.17;65.72;101609.34;5103999;28;20042;-68
2021/10/10 09:47:05;;;;;;;13.77;6.95;;;;;;;13.95;65.08;101608.56;5085880;28;20024;-69
2021/10/10 09:49:34;;;;;;;11.80;5.35;;;;;;;13.93;65.51;101603.34;5085941;28;20046;-69
2021/10/10 09:52:08;;;;;;;12.93;5.93;;;;;;;14.03;65.78;101603.31;5103966;28;20028;-69
2021/10/10 09:55:14;;;;;;;12.65;6.38;;;;;;;14.25;66.11;101591.03;5104139;28;20049;-70
2021/10/10 09:57:49;;;;;;;14.43;6.28;;;;;;;14.30;68.26;101581.44;5085710;28;20020;-69
2021/10/10 10:00:22;;;;;;;9.25;5.93;;;;;;;14.30;65.38;101594.50;5103750;28;20047;-77
2021/10/10 10:02:51;;;;;;;17.30;7.07;;;;;;;14.27;66.40;101591.91;5103948;28;20024;-74
2021/10/10 10:05:31;;;;;;;13.07;6.18;;;;;;;14.13;65.16;101579.78;5119561;28;20039;-73
2021/10/10 10:07:58;;;;;;;12.30;6.15;;;;;;;14.20;65.01;101590.22;5103708;28;20020;-70
2021/10/10 10:10:25;;;;;;;10.18;6.00;;;;;;;14.31;65.96;101580.59;5103710;28;20515;-75
2021/10/10 10:12:53;;;;;;;9.95;6.18;;;;;;;14.38;65.95;101579.66;5085293;28;20023;-70
2021/10/10 10:15:24;;;;;;;12.27;6.20;;;;;;;14.24;66.17;101555.34;5103512;28;20060;-72
2021/10/10 10:17:51;;;;;;;9.73;6.45;;;;;;;14.21;64.86;101563.22;5103897;28;20020;-74
2021/10/10 10:20:18;;;;;;;9.98;6.55;;;;;;;14.08;64.25;101559.78;5103566;28;20060;-74
2021/10/10 10:22:53;;;;;;;11.57;6.30;;;;;;;13.95;66.22;101564.19;5103406;28;20203;-73
2021/10/10 10:25:19;;;;;;;17.35;6.50;;;;;;;13.92;66.88;101553.75;5085048;28;20062;-74
2021/10/10 10:27:45;;;;;;;13.43;6.47;;;;;;;13.78;67.15;101545.97;5118874;28;20036;-76
2021/10/10 10:30:11;;;;;;;11.38;6.28;;;;;;;13.74;66.74;101539.91;5085079;28;20063;-74
2021/10/10 10:32:37;;;;;;;13.02;6.47;;;;;;;13.57;66.05;101542.56;5102996;28;20332;-74
2021/10/10 10:35:07;;;;;;;13.00;6.20;;;;;;;13.53;66.78;101553.88;5085393;28;20052;-74
2021/10/10 10:37:42;;;;;;;12.35;6.90;;;;;;;13.48;65.84;101546.91;5103424;28;20016;-75
2021/10/10 10:40:20;;;;;;;13.73;7.03;;;;;;;13.58;68.76;101541.69;5119143;28;20126;-74
2021/10/10 10:42:49;;;;;;;10.98;6.43;;;;;;;13.68;68.34;101545.13;5103470;28;20031;-75
2021/10/10 10:45:23;;;;;;;10.90;6.15;;;;;;;13.77;69.80;101542.50;5103256;28;20032;-74
2021/10/10 10:47:52;;;;;;;8.77;5.95;;;;;;;13.75;68.13;101541.66;5103248;28;20080;-74
2021/10/10 10:50:29;;;;;;;15.10;7.28;;;;;;;13.73;68.49;101538.16;5103564;28;20309;-74
2021/10/10 10:52:57;;;;;;;11.90;5.97;;;;;;;13.62;68.18;101530.38;5103372;28;20024;-74
2021/10/10 10:55:31;;;;;;;10.55;5.47;;;;;;;13.62;68.59;101533.88;5103325;28;20027;-73
2021/10/10 10:58:16;;;;;;;15.32;6.75;;;;;;;13.53;67.91;101535.63;5119005;28;20087;-75
2021/10/10 11:00:46;;;;;;;9.30;6.20;;;;;;;13.49;69.80;101533.00;5118780;28;20117;-75
2021/10/10 11:03:11;;;;;;;11.15;6.57;;;;;;;13.44;68.97;101531.25;5103151;28;20093;-75
2021/10/10 11:05:46;;;;;;;11.45;5.53;;;;;;;13.35;68.41;101529.56;5103500;28;20398;-75
2021/10/10 11:08:17;;;;;;;11.32;6.43;;;;;;;13.23;66.89;101520.88;5103081;28;20035;-75
2021/10/10 11:11:04;;;;;;;12.27;6.63;;;;;;;13.23;68.18;101518.25;5103322;28;20030;-74
2021/10/10 11:13:50;;;;;;;15.52;7.13;;;;;;;13.23;69.39;101523.47;5103333;28;20031;-73
2021/10/10 11:16:34;;;;;;;11.52;5.60;;;;;;;13.13;67.60;101517.41;5118576;28;20028;-74
2021/10/10 11:19:06;;;;;;;14.45;6.47;;;;;;;13.09;66.88;101512.19;5118701;28;20024;-73
2021/10/10 11:21:36;;;;;;;10.75;6.18;;;;;;;13.16;67.56;101510.47;5102899;28;20055;-74
2021/10/10 11:24:03;;;;;;;13.27;7.35;;;;;;;13.13;66.56;101524.38;5103151;28;20387;-74